createdAt,value
2022-11-17T00:01:21.253Z,5.20
2022-11-17T00:03:48.766Z,4.53
2022-11-17T00:06:16.021Z,6.10
2022-11-17T00:08:42.494Z,3.20
2022-11-17T00:11:08.998Z,8.98
2022-11-17T00:13:54.216Z,3.05
2022-11-17T00:16:21.492Z,3.50
2022-11-17T00:19:06.554Z,3.17
2022-11-17T00:21:33.336Z,2.75
2022-11-17T00:23:59.862Z,7.38
2022-11-17T00:26:28.933Z,7.57
2022-11-17T00:28:57.264Z,3.50
2022-11-17T00:31:57.620Z,4.13
2022-11-17T00:34:24.071Z,3.35
2022-11-17T00:36:51.988Z,3.58
2022-11-17T00:39:20.495Z,4.35
2022-11-17T00:41:47.043Z,3.38
2022-11-17T00:44:13.573Z,4.75
2022-11-17T00:46:40.634Z,2.97
2022-11-17T00:49:08.023Z,3.92
2022-11-17T00:51:34.799Z,3.28
2022-11-17T00:54:01.414Z,3.20
2022-11-17T00:56:28.056Z,5.20
2022-11-17T00:58:54.600Z,5.05
2022-11-17T01:01:21.075Z,3.20
2022-11-17T01:03:47.823Z,5.75
2022-11-17T01:06:19.682Z,2.72
2022-11-17T01:08:46.654Z,3.15
2022-11-17T01:11:16.230Z,4.00
2022-11-17T01:13:43.788Z,3.38
2022-11-17T01:16:19.499Z,3.80
2022-11-17T01:18:47.442Z,5.53
2022-11-17T01:21:19.205Z,4.18
2022-11-17T01:23:46.477Z,3.10
2022-11-17T01:26:15.601Z,2.78
2022-11-17T01:28:42.929Z,2.53
2022-11-17T01:31:16.773Z,2.90
2022-11-17T01:33:43.656Z,2.90
2022-11-17T01:36:19.079Z,4.00
2022-11-17T01:38:45.701Z,5.15
2022-11-17T01:41:20.556Z,3.92
2022-11-17T01:43:58.818Z,3.58
2022-11-17T01:46:38.716Z,2.80
2022-11-17T01:49:11.160Z,5.10
2022-11-17T01:51:41.289Z,3.38
2022-11-17T01:54:09.082Z,3.13
2022-11-17T01:56:40.000Z,6.03
2022-11-17T01:59:10.151Z,3.10
2022-11-17T02:01:55.329Z,6.20
2022-11-17T02:04:23.432Z,3.67
2022-11-17T02:06:52.724Z,4.75
2022-11-17T02:09:20.113Z,6.20
2022-11-17T02:11:47.107Z,4.72
2022-11-17T02:14:13.552Z,5.57
2022-11-17T02:16:40.070Z,4.88
2022-11-17T02:19:07.019Z,3.78
2022-11-17T02:21:44.917Z,3.67
2022-11-17T02:24:17.421Z,5.18
2022-11-17T02:27:21.545Z,6.03
2022-11-17T02:29:59.549Z,4.93
2022-11-17T02:32:44.983Z,6.65
2022-11-17T02:35:36.207Z,2.85
2022-11-17T02:38:15.333Z,3.47
2022-11-17T02:41:09.133Z,3.90
2022-11-17T02:44:07.744Z,3.45
2022-11-17T02:46:59.842Z,4.85
2022-11-17T02:49:29.870Z,4.97
2022-11-17T02:51:57.846Z,5.47
2022-11-17T02:54:27.120Z,4.38
2022-11-17T02:56:53.571Z,4.32
2022-11-17T02:59:23.710Z,2.97
2022-11-17T03:02:08.683Z,3.55
2022-11-17T03:05:05.595Z,6.43
2022-11-17T03:08:06.056Z,4.20
2022-11-17T03:10:39.023Z,4.72
2022-11-17T03:13:14.964Z,4.07
2022-11-17T03:16:01.500Z,3.85
2022-11-17T03:18:38.351Z,15.48
2022-11-17T03:21:21.879Z,4.13
2022-11-17T03:24:14.078Z,5.05
2022-11-17T03:26:52.431Z,5.78
2022-11-17T03:29:21.321Z,5.63
2022-11-17T03:31:49.060Z,3.97
2022-11-17T03:34:16.910Z,5.70
2022-11-17T03:36:47.384Z,5.63
2022-11-17T03:39:23.672Z,6.18
2022-11-17T03:41:52.290Z,5.38
2022-11-17T03:44:20.861Z,6.22
2022-11-17T03:46:48.218Z,5.28
2022-11-17T03:49:24.849Z,10.50
2022-11-17T03:51:51.441Z,5.55
2022-11-17T03:54:18.023Z,9.73
2022-11-17T03:56:53.620Z,7.03
2022-11-17T03:59:43.198Z,6.18
2022-11-17T04:02:20.122Z,7.65
2022-11-17T04:05:05.274Z,6.80
2022-11-17T04:07:41.794Z,7.32
2022-11-17T04:10:11.114Z,8.27
2022-11-17T04:12:56.054Z,7.20
2022-11-17T04:15:41.455Z,8.82
2022-11-17T04:18:07.946Z,6.45
2022-11-17T04:20:37.219Z,8.02
2022-11-17T04:23:07.957Z,8.60
2022-11-17T04:25:57.188Z,10.43
2022-11-17T04:28:39.726Z,6.95
2022-11-17T04:31:10.363Z,6.82
2022-11-17T04:33:38.914Z,8.32
2022-11-17T04:36:06.212Z,5.80
2022-11-17T04:38:32.739Z,6.03
2022-11-17T04:41:25.558Z,4.95
2022-11-17T04:43:52.129Z,5.75
2022-11-17T04:46:19.067Z,8.93
2022-11-17T04:48:45.819Z,6.28
2022-11-17T04:51:12.298Z,6.53
2022-11-17T04:53:38.805Z,6.18
2022-11-17T04:56:05.650Z,5.65
2022-11-17T04:58:32.081Z,11.82
2022-11-17T05:01:12.275Z,8.50
2022-11-17T05:03:41.175Z,9.25
2022-11-17T05:06:07.990Z,7.43
2022-11-17T05:08:38.613Z,8.07
2022-11-17T05:11:25.545Z,7.85
2022-11-17T05:13:52.364Z,12.88
2022-11-17T05:16:38.063Z,5.90
2022-11-17T05:19:05.765Z,6.65
2022-11-17T05:21:32.595Z,6.80
2022-11-17T05:23:59.172Z,6.30
2022-11-17T05:26:27.932Z,6.22
2022-11-17T05:28:55.778Z,6.80
2022-11-17T05:31:22.860Z,11.65
2022-11-17T05:33:49.331Z,9.02
2022-11-17T05:36:17.076Z,10.82
2022-11-17T05:38:43.673Z,8.35
2022-11-17T05:41:10.110Z,7.78
2022-11-17T05:43:36.840Z,8.95
2022-11-17T05:46:03.531Z,9.98
2022-11-17T05:48:30.088Z,11.18
2022-11-17T05:50:56.891Z,14.38
2022-11-17T05:53:24.835Z,9.15
2022-11-17T05:55:51.340Z,13.25
2022-11-17T05:58:22.787Z,12.77
2022-11-17T06:00:49.492Z,8.10
2022-11-17T06:03:19.759Z,7.93
2022-11-17T06:05:46.467Z,9.57
2022-11-17T06:08:12.920Z,7.38
2022-11-17T06:10:39.402Z,10.70
2022-11-17T06:13:05.903Z,10.50
2022-11-17T06:15:32.481Z,7.63
2022-11-17T06:18:19.154Z,5.80
2022-11-17T06:20:48.495Z,8.05
2022-11-17T06:23:16.005Z,6.35
2022-11-17T06:25:43.069Z,7.05
2022-11-17T06:28:11.329Z,9.90
2022-11-17T06:30:38.996Z,6.80
2022-11-17T06:33:07.734Z,7.97
2022-11-17T06:35:35.059Z,8.23
2022-11-17T06:38:02.252Z,5.53
2022-11-17T06:40:28.713Z,6.80
2022-11-17T06:43:06.591Z,6.28
2022-11-17T06:45:40.756Z,7.60
2022-11-17T06:48:08.736Z,6.05
2022-11-17T06:50:35.220Z,7.10
2022-11-17T06:53:04.535Z,5.30
2022-11-17T06:55:30.967Z,7.75
2022-11-17T06:58:08.345Z,7.68
2022-11-17T07:00:36.683Z,7.30
2022-11-17T07:03:09.196Z,6.93
2022-11-17T07:05:40.121Z,7.72
2022-11-17T07:08:08.473Z,8.30
2022-11-17T07:10:35.935Z,8.65
2022-11-17T07:13:02.975Z,7.57
2022-11-17T07:15:29.504Z,9.30
2022-11-17T07:17:57.269Z,5.57
2022-11-17T07:20:23.738Z,10.50
2022-11-17T07:22:50.218Z,7.32
2022-11-17T07:25:22.119Z,6.07
2022-11-17T07:27:48.936Z,8.00
2022-11-17T07:30:15.631Z,6.20
2022-11-17T07:32:42.094Z,7.30
2022-11-17T07:35:08.869Z,5.63
2022-11-17T07:37:35.733Z,6.45
2022-11-17T07:40:02.210Z,7.03
2022-11-17T07:42:28.670Z,5.13
2022-11-17T07:44:55.149Z,7.78
2022-11-17T07:47:21.676Z,6.85
2022-11-17T07:49:48.142Z,7.85
2022-11-17T07:52:14.639Z,5.82
2022-11-17T07:54:41.110Z,5.63
2022-11-17T07:57:07.623Z,8.73
2022-11-17T07:59:34.068Z,5.30
2022-11-17T08:02:00.510Z,5.85
2022-11-17T08:04:27.002Z,6.57
2022-11-17T08:06:53.521Z,6.57
2022-11-17T08:09:20.069Z,6.65
2022-11-17T08:11:46.511Z,10.23
2022-11-17T08:14:12.990Z,8.07
2022-11-17T08:16:39.450Z,13.68
2022-11-17T08:19:06.153Z,10.73
2022-11-17T08:21:32.696Z,9.88
2022-11-17T08:24:00.147Z,12.23
2022-11-17T08:26:26.648Z,11.93
2022-11-17T08:28:58.079Z,14.68
2022-11-17T08:31:25.384Z,13.23
2022-11-17T08:33:51.837Z,11.45
2022-11-17T08:36:18.360Z,11.10
2022-11-17T08:38:44.802Z,17.83
2022-11-17T08:41:11.286Z,12.82
2022-11-17T08:43:37.761Z,13.60
2022-11-17T08:46:04.380Z,14.18
2022-11-17T08:48:31.642Z,15.25
2022-11-17T08:50:58.308Z,13.85
2022-11-17T08:53:24.799Z,15.07
2022-11-17T08:55:51.918Z,12.82
2022-11-17T08:58:18.632Z,13.68
2022-11-17T09:00:48.090Z,12.88
2022-11-17T09:03:15.061Z,12.20
2022-11-17T09:05:47.068Z,15.77
2022-11-17T09:11:16.323Z,12.10
2022-11-17T09:13:43.263Z,13.05
2022-11-17T09:16:10.894Z,12.82
2022-11-17T09:18:38.789Z,11.38
2022-11-17T09:21:08.975Z,12.18
2022-11-17T09:23:36.378Z,13.05
2022-11-17T09:26:08.446Z,10.68
2022-11-17T09:28:35.535Z,11.45
2022-11-17T09:31:09.469Z,9.32
2022-11-17T09:33:36.327Z,10.13
2022-11-17T09:36:03.006Z,10.85
2022-11-17T09:38:29.646Z,11.93
2022-11-17T09:40:58.384Z,10.60
2022-11-17T09:43:30.901Z,14.25
2022-11-17T09:46:22.222Z,10.48
2022-11-17T09:49:06.719Z,10.70
2022-11-17T09:51:34.710Z,9.95
2022-11-17T09:54:13.613Z,10.25
2022-11-17T09:56:40.465Z,9.20
2022-11-17T09:59:11.993Z,8.77
2022-11-17T10:01:38.717Z,13.45
2022-11-17T10:04:10.906Z,12.07
2022-11-17T10:06:37.929Z,8.88
2022-11-17T10:09:35.458Z,12.65
2022-11-17T10:12:18.644Z,9.30
2022-11-17T10:14:46.600Z,7.65
2022-11-17T10:17:13.554Z,7.05
2022-11-17T10:19:40.752Z,9.07
2022-11-17T10:22:07.124Z,7.57
2022-11-17T10:24:34.797Z,7.05
2022-11-17T10:27:02.926Z,8.98
2022-11-17T10:29:29.413Z,8.25
2022-11-17T10:31:55.860Z,8.40
2022-11-17T10:34:40.781Z,8.90
2022-11-17T10:37:13.978Z,9.07
2022-11-17T10:39:41.796Z,7.30
2022-11-17T10:42:20.266Z,8.52
2022-11-17T10:44:52.257Z,9.25
2022-11-17T10:47:28.993Z,6.72
2022-11-17T10:50:19.150Z,9.00
2022-11-17T10:52:46.593Z,6.05
2022-11-17T10:55:23.081Z,6.47
2022-11-17T10:57:53.527Z,8.55
2022-11-17T11:00:28.477Z,9.13
2022-11-17T11:03:06.599Z,8.77
2022-11-17T11:05:33.085Z,5.85
2022-11-17T11:08:17.856Z,8.55
2022-11-17T11:10:47.320Z,6.63
2022-11-17T11:13:23.931Z,8.00
2022-11-17T11:15:50.417Z,9.48
2022-11-17T11:18:19.065Z,7.07
2022-11-17T11:21:07.612Z,7.47
2022-11-17T11:24:11.121Z,6.60
2022-11-17T11:26:45.740Z,7.13
2022-11-17T11:29:54.705Z,8.13
2022-11-17T11:32:40.070Z,10.50
2022-11-17T11:35:31.289Z,7.72
2022-11-17T11:38:20.441Z,7.90
2022-11-17T11:40:59.056Z,9.68
2022-11-17T11:43:42.592Z,14.00
2022-11-17T11:46:26.262Z,6.15
2022-11-17T11:48:55.146Z,9.60
2022-11-17T11:51:25.543Z,9.43
2022-11-17T11:53:58.813Z,8.30
2022-11-17T11:56:32.561Z,10.85
2022-11-17T11:59:14.033Z,9.88
2022-11-17T12:01:52.644Z,9.18
2022-11-17T12:04:36.072Z,9.60
2022-11-17T12:07:11.031Z,10.77
2022-11-17T12:09:46.113Z,18.17
2022-11-17T12:12:22.877Z,12.50
2022-11-17T12:15:30.633Z,8.30
2022-11-17T12:18:04.324Z,13.77
2022-11-17T12:20:30.656Z,8.77
2022-11-17T12:23:10.004Z,12.07
2022-11-17T12:25:37.124Z,7.13
2022-11-17T12:28:39.866Z,9.32
2022-11-17T12:31:33.050Z,9.30
2022-11-17T12:33:59.438Z,9.30
2022-11-17T12:36:33.198Z,10.27
2022-11-17T12:39:04.438Z,7.53
2022-11-17T12:41:49.167Z,7.28
2022-11-17T12:44:37.154Z,5.72
2022-11-17T12:47:10.923Z,6.65
2022-11-17T12:49:59.994Z,9.18
2022-11-17T12:52:38.552Z,6.38
2022-11-17T12:55:33.503Z,7.15
2022-11-17T12:58:10.653Z,8.07
2022-11-17T13:00:46.310Z,7.70
2022-11-17T13:03:22.445Z,8.68
2022-11-17T13:06:33.912Z,8.02
2022-11-17T13:09:00.493Z,8.18
2022-11-17T13:11:27.409Z,6.35
2022-11-17T13:14:16.528Z,9.75
2022-11-17T13:16:50.919Z,7.18
2022-11-17T13:19:36.696Z,8.15
2022-11-17T13:22:16.309Z,8.02
2022-11-17T13:24:48.161Z,8.10
2022-11-17T13:27:32.753Z,8.38
2022-11-17T13:30:12.798Z,7.00
2022-11-17T13:32:40.404Z,7.38
2022-11-17T13:35:23.449Z,7.55
2022-11-17T13:38:02.058Z,6.88
2022-11-17T13:40:29.219Z,6.38
2022-11-17T13:42:55.979Z,7.30
2022-11-17T13:45:22.434Z,8.13
2022-11-17T13:47:49.622Z,7.63
2022-11-17T13:50:22.000Z,9.10
2022-11-17T13:53:06.352Z,8.20
2022-11-17T13:55:33.970Z,9.27
2022-11-17T13:58:20.519Z,8.45
2022-11-17T14:00:53.444Z,7.82
2022-11-17T14:03:39.427Z,7.22
2022-11-17T14:06:10.473Z,8.35
2022-11-17T14:08:38.383Z,7.03
2022-11-17T14:11:09.662Z,11.23
2022-11-17T14:13:42.306Z,10.98
2022-11-17T14:16:36.379Z,6.37
2022-11-17T14:19:29.373Z,8.43
2022-11-17T14:22:03.866Z,8.55
2022-11-17T14:24:32.648Z,8.38
2022-11-17T14:26:59.563Z,9.65
2022-11-17T14:29:27.887Z,8.48
2022-11-17T14:31:54.671Z,7.85
2022-11-17T14:34:22.893Z,7.97
2022-11-17T14:36:54.532Z,7.82
2022-11-17T14:39:21.403Z,8.85
2022-11-17T14:41:50.410Z,7.57
2022-11-17T14:44:17.146Z,10.35
2022-11-17T14:46:43.784Z,9.55
2022-11-17T14:49:10.360Z,10.75
2022-11-17T14:51:36.800Z,11.25
2022-11-17T14:54:03.921Z,8.48
2022-11-17T14:56:30.483Z,9.55
2022-11-17T14:58:58.730Z,7.82
2022-11-17T15:01:29.286Z,9.05
2022-11-17T15:03:57.847Z,9.98
2022-11-17T15:06:25.110Z,8.20
2022-11-17T15:09:00.003Z,8.48
2022-11-17T15:11:29.238Z,8.35
2022-11-17T15:14:01.319Z,8.65
2022-11-17T15:16:27.867Z,8.23
2022-11-17T15:18:54.407Z,7.78
2022-11-17T15:21:20.889Z,10.10
2022-11-17T15:23:47.342Z,8.23
2022-11-17T15:26:15.664Z,8.57
2022-11-17T15:28:42.209Z,8.38
2022-11-17T15:31:13.697Z,10.82
2022-11-17T15:33:40.860Z,7.53
2022-11-17T15:36:09.446Z,9.02
2022-11-17T15:38:36.747Z,9.10
2022-11-17T15:41:03.772Z,9.27
2022-11-17T15:43:32.021Z,8.80
2022-11-17T15:46:01.353Z,6.88
2022-11-17T15:48:28.059Z,7.70
2022-11-17T15:50:58.705Z,11.07
2022-11-17T15:53:28.045Z,10.20
2022-11-17T15:55:54.485Z,11.10
2022-11-17T15:58:20.993Z,10.77
2022-11-17T16:00:47.518Z,12.13
2022-11-17T16:03:13.986Z,12.02
2022-11-17T16:05:40.601Z,9.35
2022-11-17T16:08:07.045Z,11.73
2022-11-17T16:10:33.534Z,7.85
2022-11-17T16:13:00.010Z,8.85
2022-11-17T16:15:26.586Z,9.77
2022-11-17T16:17:53.169Z,12.25
2022-11-17T16:20:19.810Z,8.50
2022-11-17T16:22:46.417Z,10.57
2022-11-17T16:25:12.885Z,9.98
2022-11-17T16:27:39.932Z,10.43
2022-11-17T16:30:06.836Z,13.07
2022-11-17T16:32:33.287Z,12.30
2022-11-17T16:34:59.787Z,9.30
2022-11-17T16:37:26.239Z,8.68
2022-11-17T16:39:52.775Z,10.27
2022-11-17T16:42:19.292Z,10.00
2022-11-17T16:44:45.883Z,9.82
2022-11-17T16:47:12.451Z,8.48
2022-11-17T16:49:38.990Z,10.25
2022-11-17T16:52:05.427Z,12.40
2022-11-17T16:54:31.924Z,13.98
2022-11-17T16:56:58.460Z,11.63
2022-11-17T16:59:24.917Z,11.82
2022-11-17T17:01:52.533Z,11.73
2022-11-17T17:04:18.989Z,9.10
2022-11-17T17:06:45.974Z,11.07
2022-11-17T17:09:14.215Z,13.00
2022-11-17T17:11:41.547Z,11.85
2022-11-17T17:14:09.657Z,10.18
2022-11-17T17:16:37.492Z,9.40
2022-11-17T17:19:05.697Z,10.68
2022-11-17T17:21:33.296Z,9.75
2022-11-17T17:23:59.962Z,10.48
2022-11-17T17:26:28.459Z,9.77
2022-11-17T17:28:56.835Z,9.85
2022-11-17T17:31:24.153Z,9.70
2022-11-17T17:33:51.327Z,10.60
2022-11-17T17:36:22.586Z,9.75
2022-11-17T17:38:54.942Z,12.95
2022-11-17T17:41:23.878Z,10.48
2022-11-17T17:43:56.556Z,12.05
2022-11-17T17:46:23.256Z,12.30
2022-11-17T17:48:50.151Z,12.38
2022-11-17T17:51:20.620Z,10.88
2022-11-17T17:53:50.087Z,8.27
2022-11-17T17:56:18.947Z,13.02
2022-11-17T17:58:46.738Z,12.75
2022-11-17T18:01:15.894Z,11.32
2022-11-17T18:03:45.588Z,11.00
2022-11-17T18:06:12.655Z,14.63
2022-11-17T18:08:42.308Z,13.23
2022-11-17T18:11:12.366Z,10.40
2022-11-17T18:13:41.161Z,12.50
2022-11-17T18:16:10.562Z,11.13
2022-11-17T18:18:37.926Z,9.77
2022-11-17T18:21:09.377Z,12.60
2022-11-17T18:23:36.645Z,14.25
2022-11-17T18:26:21.099Z,10.35
2022-11-17T18:29:08.031Z,11.43
2022-11-17T18:31:36.044Z,14.50
2022-11-17T18:34:14.331Z,14.77
2022-11-17T18:36:40.834Z,11.05
2022-11-17T18:39:07.285Z,10.23
2022-11-17T18:41:33.963Z,9.48
2022-11-17T18:44:01.002Z,11.25
2022-11-17T18:46:30.215Z,13.50
2022-11-17T18:48:57.505Z,10.95
2022-11-17T18:51:29.205Z,13.18
2022-11-17T18:53:57.476Z,12.60
2022-11-17T18:56:25.856Z,11.93
2022-11-17T18:58:52.653Z,11.60
2022-11-17T19:01:24.471Z,11.15
2022-11-17T19:03:53.109Z,13.50
2022-11-17T19:06:21.577Z,14.45
2022-11-17T19:08:48.452Z,13.18
2022-11-17T19:11:15.864Z,13.13
2022-11-17T19:13:42.656Z,12.52
2022-11-17T19:16:10.152Z,13.55
2022-11-17T19:18:36.854Z,12.60
2022-11-17T19:21:14.030Z,13.52
2022-11-17T19:23:48.044Z,11.32
2022-11-17T19:26:25.396Z,12.95
2022-11-17T19:28:56.664Z,13.20
2022-11-17T19:31:23.424Z,15.02
2022-11-17T19:33:52.735Z,12.20
2022-11-17T19:36:27.795Z,12.30
2022-11-17T19:38:55.144Z,12.43
2022-11-17T19:41:33.078Z,15.13
2022-11-17T19:44:01.079Z,10.55
2022-11-17T19:46:28.475Z,13.48
2022-11-17T19:48:55.535Z,14.07
2022-11-17T19:51:26.830Z,20.60
2022-11-17T19:53:54.742Z,11.05
2022-11-17T19:56:22.089Z,15.23
2022-11-17T19:58:49.684Z,14.52
2022-11-17T20:01:24.174Z,13.90
2022-11-17T20:03:50.949Z,15.40
2022-11-17T20:06:19.477Z,15.98
2022-11-17T20:08:46.590Z,14.60
2022-11-17T20:11:23.178Z,20.48
2022-11-17T20:13:49.816Z,13.75
2022-11-17T20:16:18.825Z,15.57
2022-11-17T20:18:48.301Z,15.60
2022-11-17T20:21:14.781Z,14.45
2022-11-17T20:23:41.722Z,15.32
2022-11-17T20:26:11.545Z,14.40
2022-11-17T20:28:38.357Z,18.67
2022-11-17T20:31:13.362Z,13.93
2022-11-17T20:33:41.006Z,17.95
2022-11-17T20:36:08.694Z,19.90
2022-11-17T20:38:35.960Z,15.10
2022-11-17T20:41:05.114Z,18.23
2022-11-17T20:43:32.063Z,16.48
2022-11-17T20:45:58.922Z,15.50
2022-11-17T20:48:27.940Z,17.33
2022-11-17T20:50:58.528Z,15.88
2022-11-17T20:53:25.419Z,16.77
2022-11-17T20:55:52.432Z,15.52
2022-11-17T20:58:19.257Z,15.60
2022-11-17T21:00:45.817Z,15.85
2022-11-17T21:03:12.306Z,18.50
2022-11-17T21:05:38.746Z,15.80
2022-11-17T21:08:05.552Z,17.58
2022-11-17T21:10:32.002Z,20.38
2022-11-17T21:12:58.916Z,15.93
2022-11-17T21:15:25.592Z,17.52
2022-11-17T21:18:12.624Z,15.82
2022-11-17T21:20:39.080Z,17.65
2022-11-17T21:23:06.493Z,18.17
2022-11-17T21:25:35.489Z,18.45
2022-11-17T21:28:02.116Z,16.33
2022-11-17T21:30:28.602Z,17.38
2022-11-17T21:32:55.066Z,18.25
2022-11-17T21:35:21.530Z,16.27
2022-11-17T21:37:47.993Z,18.27
2022-11-17T21:40:14.464Z,15.88
2022-11-17T21:42:40.918Z,15.65
2022-11-17T21:45:08.298Z,16.38
2022-11-17T21:47:34.758Z,18.95
2022-11-17T21:50:01.250Z,18.55
2022-11-17T21:52:27.714Z,20.00
2022-11-17T21:54:54.177Z,15.13
2022-11-17T21:57:20.681Z,18.98
2022-11-17T21:59:47.146Z,17.58
2022-11-17T22:02:13.606Z,16.55
2022-11-17T22:04:40.189Z,19.92
2022-11-17T22:07:06.796Z,17.60
2022-11-17T22:09:34.045Z,17.05
2022-11-17T22:12:01.048Z,18.30
2022-11-17T22:14:27.497Z,16.08
2022-11-17T22:16:56.257Z,16.75
2022-11-17T22:19:24.182Z,20.60
2022-11-17T22:21:52.824Z,19.73
2022-11-17T22:24:19.519Z,15.70
2022-11-17T22:26:46.273Z,16.27
2022-11-17T22:29:17.891Z,18.42
2022-11-17T22:31:45.607Z,18.05
2022-11-17T22:34:13.303Z,20.88
2022-11-17T22:36:39.927Z,22.98
2022-11-17T22:39:06.628Z,24.02
2022-11-17T22:41:33.165Z,20.00
2022-11-17T22:43:59.682Z,23.35
2022-11-17T22:46:27.352Z,22.75
2022-11-17T22:48:54.097Z,17.48
2022-11-17T22:51:41.361Z,23.42
2022-11-17T22:54:08.481Z,27.13
2022-11-17T22:56:35.525Z,26.27
2022-11-17T22:59:02.031Z,24.17
2022-11-17T23:01:28.510Z,29.13
2022-11-17T23:03:54.978Z,27.00
2022-11-17T23:06:22.666Z,26.67
2022-11-17T23:08:49.147Z,32.63
2022-11-17T23:11:35.954Z,29.55
2022-11-17T23:14:02.228Z,30.40
2022-11-17T23:16:28.676Z,31.98
2022-11-17T23:18:55.962Z,38.28
2022-11-17T23:21:23.030Z,33.97
2022-11-17T23:23:49.622Z,34.45
2022-11-17T23:26:16.106Z,35.45
2022-11-17T23:28:43.016Z,35.40
2022-11-17T23:31:11.664Z,33.83
2022-11-17T23:33:40.452Z,35.10
2022-11-17T23:36:10.747Z,33.25
2022-11-17T23:38:37.225Z,30.50
2022-11-17T23:41:05.910Z,37.60
2022-11-17T23:43:32.446Z,32.53
2022-11-17T23:46:13.453Z,31.85
2022-11-17T23:48:40.435Z,32.05
2022-11-17T23:51:11.859Z,34.90
2022-11-17T23:53:38.430Z,28.02
2022-11-17T23:56:05.756Z,32.67
2022-11-17T23:58:32.219Z,33.92
